sensor_id;sensor_type;location;lat;lon;timestamp;P1;durP1;ratioP1;P2;durP2;ratioP2
67132;SDS011;54052;53.542;49.408;2022-09-09T00:04:12;2.05;;;0.60;;
67132;SDS011;54052;53.542;49.408;2022-09-09T00:09:48;5.85;;;0.50;;
67132;SDS011;54052;53.542;49.408;2022-09-09T00:12:31;0.73;;;0.50;;
67132;SDS011;54052;53.542;49.408;2022-09-09T00:15:05;1.40;;;0.63;;
67132;SDS011;54052;53.542;49.408;2022-09-09T00:17:38;1.27;;;0.57;;
67132;SDS011;54052;53.542;49.408;2022-09-09T00:20:20;3.50;;;0.52;;
67132;SDS011;54052;53.542;49.408;2022-09-09T00:25:33;0.63;;;0.57;;
67132;SDS011;54052;53.542;49.408;2022-09-09T00:28:13;5.60;;;0.55;;
67132;SDS011;54052;53.542;49.408;2022-09-09T00:30:44;1.50;;;0.65;;
67132;SDS011;54052;53.542;49.408;2022-09-09T00:33:14;1.08;;;0.47;;
67132;SDS011;54052;53.542;49.408;2022-09-09T00:35:51;3.17;;;0.55;;
67132;SDS011;54052;53.542;49.408;2022-09-09T00:43:39;1.85;;;0.77;;
67132;SDS011;54052;53.542;49.408;2022-09-09T00:52:12;1.45;;;0.60;;
67132;SDS011;54052;53.542;49.408;2022-09-09T00:54:57;1.00;;;0.50;;
67132;SDS011;54052;53.542;49.408;2022-09-09T00:57:31;0.70;;;0.60;;
67132;SDS011;54052;53.542;49.408;2022-09-09T01:00:15;0.80;;;0.50;;
67132;SDS011;54052;53.542;49.408;2022-09-09T01:13:34;4.80;;;0.60;;
67132;SDS011;54052;53.542;49.408;2022-09-09T01:16:02;1.95;;;0.50;;
67132;SDS011;54052;53.542;49.408;2022-09-09T01:18:35;1.45;;;0.60;;
67132;SDS011;54052;53.542;49.408;2022-09-09T01:24:07;5.45;;;0.75;;
67132;SDS011;54052;53.542;49.408;2022-09-09T01:27:13;1.55;;;0.70;;
67132;SDS011;54052;53.542;49.408;2022-09-09T01:29:41;1.67;;;0.70;;
67132;SDS011;54052;53.542;49.408;2022-09-09T01:38:11;5.95;;;3.65;;
67132;SDS011;54052;53.542;49.408;2022-09-09T01:40:37;2.40;;;0.85;;
67132;SDS011;54052;53.542;49.408;2022-09-09T01:43:04;2.38;;;0.80;;
67132;SDS011;54052;53.542;49.408;2022-09-09T01:45:30;1.88;;;0.80;;
67132;SDS011;54052;53.542;49.408;2022-09-09T01:47:56;1.27;;;0.70;;
67132;SDS011;54052;53.542;49.408;2022-09-09T01:50:23;1.27;;;0.93;;
67132;SDS011;54052;53.542;49.408;2022-09-09T01:52:50;2.60;;;0.88;;
67132;SDS011;54052;53.542;49.408;2022-09-09T02:03:51;7.28;;;2.28;;
67132;SDS011;54052;53.542;49.408;2022-09-09T02:08:59;8.85;;;2.10;;
67132;SDS011;54052;53.542;49.408;2022-09-09T02:11:29;6.97;;;2.25;;
67132;SDS011;54052;53.542;49.408;2022-09-09T02:14:16;7.13;;;2.42;;
67132;SDS011;54052;53.542;49.408;2022-09-09T02:16:52;15.63;;;3.58;;
67132;SDS011;54052;53.542;49.408;2022-09-09T02:19:31;19.75;;;6.10;;
67132;SDS011;54052;53.542;49.408;2022-09-09T02:21:59;11.50;;;3.95;;
67132;SDS011;54052;53.542;49.408;2022-09-09T02:24:27;8.07;;;2.92;;
67132;SDS011;54052;53.542;49.408;2022-09-09T02:26:56;7.00;;;2.33;;
67132;SDS011;54052;53.542;49.408;2022-09-09T02:29:26;6.53;;;2.33;;
67132;SDS011;54052;53.542;49.408;2022-09-09T02:31:56;7.13;;;2.85;;
67132;SDS011;54052;53.542;49.408;2022-09-09T02:34:27;14.85;;;3.10;;
67132;SDS011;54052;53.542;49.408;2022-09-09T02:36:56;12.82;;;4.65;;
67132;SDS011;54052;53.542;49.408;2022-09-09T02:39:25;11.57;;;4.45;;
67132;SDS011;54052;53.542;49.408;2022-09-09T02:41:51;16.38;;;4.35;;
67132;SDS011;54052;53.542;49.408;2022-09-09T02:44:18;18.92;;;6.03;;
67132;SDS011;54052;53.542;49.408;2022-09-09T02:55:40;13.80;;;5.32;;
67132;SDS011;54052;53.542;49.408;2022-09-09T02:58:12;11.90;;;4.65;;
67132;SDS011;54052;53.542;49.408;2022-09-09T03:00:42;10.85;;;3.70;;
67132;SDS011;54052;53.542;49.408;2022-09-09T03:03:09;11.68;;;4.57;;
67132;SDS011;54052;53.542;49.408;2022-09-09T03:05:35;12.43;;;3.92;;
67132;SDS011;54052;53.542;49.408;2022-09-09T03:08:02;9.15;;;3.08;;
67132;SDS011;54052;53.542;49.408;2022-09-09T03:10:29;6.72;;;2.85;;
67132;SDS011;54052;53.542;49.408;2022-09-09T03:12:55;12.23;;;2.45;;
67132;SDS011;54052;53.542;49.408;2022-09-09T03:15:21;5.85;;;2.50;;
67132;SDS011;54052;53.542;49.408;2022-09-09T03:17:48;6.30;;;2.67;;
67132;SDS011;54052;53.542;49.408;2022-09-09T03:20:14;5.72;;;2.38;;
67132;SDS011;54052;53.542;49.408;2022-09-09T03:22:40;6.03;;;2.63;;
67132;SDS011;54052;53.542;49.408;2022-09-09T03:25:06;9.10;;;2.50;;
67132;SDS011;54052;53.542;49.408;2022-09-09T03:27:32;8.35;;;2.97;;
67132;SDS011;54052;53.542;49.408;2022-09-09T03:29:58;6.13;;;2.50;;
67132;SDS011;54052;53.542;49.408;2022-09-09T03:32:24;8.93;;;3.13;;
67132;SDS011;54052;53.542;49.408;2022-09-09T03:34:52;8.55;;;3.00;;
67132;SDS011;54052;53.542;49.408;2022-09-09T03:37:18;7.75;;;2.72;;
67132;SDS011;54052;53.542;49.408;2022-09-09T03:39:45;5.95;;;2.80;;
67132;SDS011;54052;53.542;49.408;2022-09-09T03:42:14;13.90;;;3.03;;
67132;SDS011;54052;53.542;49.408;2022-09-09T03:44:45;7.20;;;2.75;;
67132;SDS011;54052;53.542;49.408;2022-09-09T03:47:16;12.27;;;3.47;;
67132;SDS011;54052;53.542;49.408;2022-09-09T03:49:44;14.20;;;4.00;;
67132;SDS011;54052;53.542;49.408;2022-09-09T03:52:10;9.02;;;2.83;;
67132;SDS011;54052;53.542;49.408;2022-09-09T03:54:37;7.68;;;3.08;;
67132;SDS011;54052;53.542;49.408;2022-09-09T03:57:03;12.75;;;3.97;;
67132;SDS011;54052;53.542;49.408;2022-09-09T03:59:30;10.00;;;3.70;;
67132;SDS011;54052;53.542;49.408;2022-09-09T04:01:56;10.05;;;2.33;;
67132;SDS011;54052;53.542;49.408;2022-09-09T04:04:24;5.50;;;2.22;;
67132;SDS011;54052;53.542;49.408;2022-09-09T04:06:51;5.72;;;3.13;;
67132;SDS011;54052;53.542;49.408;2022-09-09T04:09:18;11.20;;;2.70;;
67132;SDS011;54052;53.542;49.408;2022-09-09T04:11:46;14.77;;;3.30;;
67132;SDS011;54052;53.542;49.408;2022-09-09T04:14:12;8.82;;;3.53;;
67132;SDS011;54052;53.542;49.408;2022-09-09T04:16:38;9.35;;;2.25;;
67132;SDS011;54052;53.542;49.408;2022-09-09T04:19:07;6.63;;;1.98;;
67132;SDS011;54052;53.542;49.408;2022-09-09T04:21:33;5.18;;;1.90;;
67132;SDS011;54052;53.542;49.408;2022-09-09T04:23:59;2.75;;;1.52;;
67132;SDS011;54052;53.542;49.408;2022-09-09T04:26:25;6.72;;;1.75;;
67132;SDS011;54052;53.542;49.408;2022-09-09T04:28:51;7.13;;;2.05;;
67132;SDS011;54052;53.542;49.408;2022-09-09T04:31:18;9.80;;;1.88;;
67132;SDS011;54052;53.542;49.408;2022-09-09T04:33:46;2.70;;;1.38;;
67132;SDS011;54052;53.542;49.408;2022-09-09T04:36:13;1.90;;;1.13;;
67132;SDS011;54052;53.542;49.408;2022-09-09T04:38:39;10.52;;;0.90;;
67132;SDS011;54052;53.542;49.408;2022-09-09T04:41:05;3.22;;;0.80;;
67132;SDS011;54052;53.542;49.408;2022-09-09T04:43:32;2.35;;;1.02;;
67132;SDS011;54052;53.542;49.408;2022-09-09T04:45:58;2.25;;;0.73;;
67132;SDS011;54052;53.542;49.408;2022-09-09T04:48:25;2.38;;;0.90;;
67132;SDS011;54052;53.542;49.408;2022-09-09T04:53:24;2.50;;;0.80;;
67132;SDS011;54052;53.542;49.408;2022-09-09T04:55:51;2.65;;;0.80;;
67132;SDS011;54052;53.542;49.408;2022-09-09T04:58:18;4.95;;;0.77;;
67132;SDS011;54052;53.542;49.408;2022-09-09T05:00:47;1.35;;;0.77;;
67132;SDS011;54052;53.542;49.408;2022-09-09T05:03:12;1.00;;;0.68;;
67132;SDS011;54052;53.542;49.408;2022-09-09T05:05:38;3.72;;;0.73;;
67132;SDS011;54052;53.542;49.408;2022-09-09T05:08:05;1.17;;;0.50;;
67132;SDS011;54052;53.542;49.408;2022-09-09T05:10:33;3.40;;;0.82;;
67132;SDS011;54052;53.542;49.408;2022-09-09T05:12:59;2.28;;;0.60;;
67132;SDS011;54052;53.542;49.408;2022-09-09T05:15:25;2.47;;;0.60;;
67132;SDS011;54052;53.542;49.408;2022-09-09T05:17:51;1.25;;;0.50;;
67132;SDS011;54052;53.542;49.408;2022-09-09T05:20:19;1.65;;;0.60;;
67132;SDS011;54052;53.542;49.408;2022-09-09T05:22:46;3.08;;;0.65;;
67132;SDS011;54052;53.542;49.408;2022-09-09T05:25:12;1.55;;;0.80;;
67132;SDS011;54052;53.542;49.408;2022-09-09T05:27:39;1.52;;;0.65;;
67132;SDS011;54052;53.542;49.408;2022-09-09T05:30:05;1.40;;;0.77;;
67132;SDS011;54052;53.542;49.408;2022-09-09T05:32:31;2.00;;;0.60;;
67132;SDS011;54052;53.542;49.408;2022-09-09T05:34:59;2.55;;;0.50;;
67132;SDS011;54052;53.542;49.408;2022-09-09T05:37:25;9.98;;;1.80;;
67132;SDS011;54052;53.542;49.408;2022-09-09T05:39:52;1.50;;;0.80;;
67132;SDS011;54052;53.542;49.408;2022-09-09T05:42:18;3.20;;;0.50;;
67132;SDS011;54052;53.542;49.408;2022-09-09T05:44:44;3.50;;;0.43;;
67132;SDS011;54052;53.542;49.408;2022-09-09T05:47:10;1.55;;;0.40;;
67132;SDS011;54052;53.542;49.408;2022-09-09T05:49:37;1.60;;;0.50;;
67132;SDS011;54052;53.542;49.408;2022-09-09T05:52:03;3.15;;;0.70;;
67132;SDS011;54052;53.542;49.408;2022-09-09T05:54:29;1.35;;;0.70;;
67132;SDS011;54052;53.542;49.408;2022-09-09T05:56:55;1.50;;;0.60;;
67132;SDS011;54052;53.542;49.408;2022-09-09T05:59:21;5.18;;;0.73;;
67132;SDS011;54052;53.542;49.408;2022-09-09T06:01:48;2.25;;;0.40;;
67132;SDS011;54052;53.542;49.408;2022-09-09T06:04:15;3.47;;;0.40;;
67132;SDS011;54052;53.542;49.408;2022-09-09T06:06:41;3.33;;;0.55;;
67132;SDS011;54052;53.542;49.408;2022-09-09T06:09:07;3.00;;;0.40;;
67132;SDS011;54052;53.542;49.408;2022-09-09T06:11:36;5.65;;;0.70;;
67132;SDS011;54052;53.542;49.408;2022-09-09T06:14:04;0.98;;;0.40;;
67132;SDS011;54052;53.542;49.408;2022-09-09T06:16:33;0.95;;;0.22;;
67132;SDS011;54052;53.542;49.408;2022-09-09T06:19:00;0.80;;;0.50;;
67132;SDS011;54052;53.542;49.408;2022-09-09T06:21:32;1.98;;;0.40;;
67132;SDS011;54052;53.542;49.408;2022-09-09T06:24:00;2.58;;;0.55;;
67132;SDS011;54052;53.542;49.408;2022-09-09T06:26:27;3.85;;;0.57;;
67132;SDS011;54052;53.542;49.408;2022-09-09T06:28:56;6.07;;;0.30;;
67132;SDS011;54052;53.542;49.408;2022-09-09T06:31:24;4.13;;;0.20;;
67132;SDS011;54052;53.542;49.408;2022-09-09T06:33:55;1.02;;;0.20;;
67132;SDS011;54052;53.542;49.408;2022-09-09T06:36:24;1.65;;;0.38;;
67132;SDS011;54052;53.542;49.408;2022-09-09T06:38:52;1.15;;;0.40;;
67132;SDS011;54052;53.542;49.408;2022-09-09T06:41:18;2.20;;;0.50;;
67132;SDS011;54052;53.542;49.408;2022-09-09T06:43:46;5.05;;;0.60;;
67132;SDS011;54052;53.542;49.408;2022-09-09T06:46:13;0.30;;;0.20;;
67132;SDS011;54052;53.542;49.408;2022-09-09T06:48:44;0.95;;;0.73;;
67132;SDS011;54052;53.542;49.408;2022-09-09T06:53:44;0.65;;;0.10;;
67132;SDS011;54052;53.542;49.408;2022-09-09T06:58:40;9.65;;;0.50;;
67132;SDS011;54052;53.542;49.408;2022-09-09T07:01:10;9.00;;;0.57;;
67132;SDS011;54052;53.542;49.408;2022-09-09T07:03:38;14.23;;;1.45;;
67132;SDS011;54052;53.542;49.408;2022-09-09T07:06:05;5.20;;;1.13;;
67132;SDS011;54052;53.542;49.408;2022-09-09T07:08:35;10.45;;;0.85;;
67132;SDS011;54052;53.542;49.408;2022-09-09T07:11:04;5.95;;;0.70;;
67132;SDS011;54052;53.542;49.408;2022-09-09T07:13:32;2.90;;;1.17;;
67132;SDS011;54052;53.542;49.408;2022-09-09T07:16:06;4.10;;;1.00;;
67132;SDS011;54052;53.542;49.408;2022-09-09T07:18:33;7.32;;;0.60;;
67132;SDS011;54052;53.542;49.408;2022-09-09T07:21:00;2.88;;;0.50;;
67132;SDS011;54052;53.542;49.408;2022-09-09T07:23:27;4.50;;;0.50;;
67132;SDS011;54052;53.542;49.408;2022-09-09T07:25:54;1.52;;;0.35;;
67132;SDS011;54052;53.542;49.408;2022-09-09T07:28:20;0.73;;;0.20;;
67132;SDS011;54052;53.542;49.408;2022-09-09T07:31:00;2.35;;;0.20;;
67132;SDS011;54052;53.542;49.408;2022-09-09T07:33:31;0.60;;;0.28;;
67132;SDS011;54052;53.542;49.408;2022-09-09T07:36:04;3.28;;;0.25;;
67132;SDS011;54052;53.542;49.408;2022-09-09T07:38:42;1.58;;;0.32;;
67132;SDS011;54052;53.542;49.408;2022-09-09T07:41:16;0.73;;;0.30;;
67132;SDS011;54052;53.542;49.408;2022-09-09T07:43:45;0.97;;;0.20;;
67132;SDS011;54052;53.542;49.408;2022-09-09T07:46:13;4.22;;;0.30;;
67132;SDS011;54052;53.542;49.408;2022-09-09T07:48:47;1.67;;;0.20;;
67132;SDS011;54052;53.542;49.408;2022-09-09T07:51:17;0.00;;;0.00;;
67132;SDS011;54052;53.542;49.408;2022-09-09T07:53:46;0.10;;;0.00;;
67132;SDS011;54052;53.542;49.408;2022-09-09T07:56:14;14.05;;;0.13;;
67132;SDS011;54052;53.542;49.408;2022-09-09T07:58:42;8.32;;;0.30;;
67132;SDS011;54052;53.542;49.408;2022-09-09T08:01:18;0.95;;;0.30;;
67132;SDS011;54052;53.542;49.408;2022-09-09T08:03:53;0.40;;;0.10;;
67132;SDS011;54052;53.542;49.408;2022-09-09T08:06:21;0.20;;;0.20;;
67132;SDS011;54052;53.542;49.408;2022-09-09T08:08:49;3.25;;;0.20;;
67132;SDS011;54052;53.542;49.408;2022-09-09T08:11:16;1.30;;;0.32;;
67132;SDS011;54052;53.542;49.408;2022-09-09T08:13:43;5.45;;;0.50;;
67132;SDS011;54052;53.542;49.408;2022-09-09T08:16:12;6.00;;;0.40;;
67132;SDS011;54052;53.542;49.408;2022-09-09T08:18:42;1.00;;;0.25;;
67132;SDS011;54052;53.542;49.408;2022-09-09T08:21:14;0.73;;;0.30;;
67132;SDS011;54052;53.542;49.408;2022-09-09T08:23:43;3.15;;;0.60;;
67132;SDS011;54052;53.542;49.408;2022-09-09T08:26:12;8.48;;;1.00;;
67132;SDS011;54052;53.542;49.408;2022-09-09T08:28:40;13.30;;;1.02;;
67132;SDS011;54052;53.542;49.408;2022-09-09T08:31:08;4.90;;;0.40;;
67132;SDS011;54052;53.542;49.408;2022-09-09T08:36:06;1.58;;;0.28;;
67132;SDS011;54052;53.542;49.408;2022-09-09T08:38:36;3.95;;;0.22;;
67132;SDS011;54052;53.542;49.408;2022-09-09T08:47:02;0.75;;;0.10;;
67132;SDS011;54052;53.542;49.408;2022-09-09T08:52:09;0.10;;;0.00;;
67132;SDS011;54052;53.542;49.408;2022-09-09T08:54:43;0.30;;;0.10;;
67132;SDS011;54052;53.542;49.408;2022-09-09T08:57:11;0.20;;;0.10;;
67132;SDS011;54052;53.542;49.408;2022-09-09T08:59:42;3.15;;;0.10;;
67132;SDS011;54052;53.542;49.408;2022-09-09T09:16:23;1.70;;;0.70;;
67132;SDS011;54052;53.542;49.408;2022-09-09T09:19:00;1.90;;;0.10;;
67132;SDS011;54052;53.542;49.408;2022-09-09T09:24:20;3.40;;;0.30;;
67132;SDS011;54052;53.542;49.408;2022-09-09T09:27:15;1.85;;;0.10;;
67132;SDS011;54052;53.542;49.408;2022-09-09T09:29:52;0.50;;;0.10;;
67132;SDS011;54052;53.542;49.408;2022-09-09T09:32:22;0.75;;;0.13;;
67132;SDS011;54052;53.542;49.408;2022-09-09T09:34:51;0.25;;;0.20;;
67132;SDS011;54052;53.542;49.408;2022-09-09T09:37:31;1.10;;;0.20;;
67132;SDS011;54052;53.542;49.408;2022-09-09T09:40:16;1.02;;;0.10;;
67132;SDS011;54052;53.542;49.408;2022-09-09T09:42:54;0.20;;;0.10;;
67132;SDS011;54052;53.542;49.408;2022-09-09T09:48:00;1.60;;;0.10;;
67132;SDS011;54052;53.542;49.408;2022-09-09T09:50:31;0.47;;;0.13;;
67132;SDS011;54052;53.542;49.408;2022-09-09T09:52:59;3.20;;;0.20;;
67132;SDS011;54052;53.542;49.408;2022-09-09T09:55:28;2.42;;;0.15;;
67132;SDS011;54052;53.542;49.408;2022-09-09T09:58:03;0.50;;;0.20;;
67132;SDS011;54052;53.542;49.408;2022-09-09T10:00:30;2.33;;;0.60;;
67132;SDS011;54052;53.542;49.408;2022-09-09T10:03:13;3.45;;;0.20;;
67132;SDS011;54052;53.542;49.408;2022-09-09T10:05:49;0.57;;;0.10;;
67132;SDS011;54052;53.542;49.408;2022-09-09T10:08:16;0.60;;;0.17;;
67132;SDS011;54052;53.542;49.408;2022-09-09T10:10:56;3.50;;;0.15;;
67132;SDS011;54052;53.542;49.408;2022-09-09T10:13:29;0.73;;;0.10;;
67132;SDS011;54052;53.542;49.408;2022-09-09T10:16:29;0.10;;;0.10;;
67132;SDS011;54052;53.542;49.408;2022-09-09T10:19:06;0.20;;;0.08;;
67132;SDS011;54052;53.542;49.408;2022-09-09T10:32:41;1.30;;;0.30;;
67132;SDS011;54052;53.542;49.408;2022-09-09T10:35:24;0.17;;;0.10;;
67132;SDS011;54052;53.542;49.408;2022-09-09T10:38:10;0.45;;;0.10;;
67132;SDS011;54052;53.542;49.408;2022-09-09T10:40:43;1.42;;;0.28;;
67132;SDS011;54052;53.542;49.408;2022-09-09T10:48:58;2.55;;;0.20;;
67132;SDS011;54052;53.542;49.408;2022-09-09T10:57:17;5.18;;;0.10;;
67132;SDS011;54052;53.542;49.408;2022-09-09T11:00:13;1.13;;;0.20;;
67132;SDS011;54052;53.542;49.408;2022-09-09T11:02:44;6.35;;;0.30;;
67132;SDS011;54052;53.542;49.408;2022-09-09T11:05:20;1.17;;;0.10;;
67132;SDS011;54052;53.542;49.408;2022-09-09T11:10:36;6.03;;;0.20;;
67132;SDS011;54052;53.542;49.408;2022-09-09T11:13:09;0.20;;;0.20;;
67132;SDS011;54052;53.542;49.408;2022-09-09T11:15:42;2.95;;;0.30;;
67132;SDS011;54052;53.542;49.408;2022-09-09T11:18:13;1.90;;;0.35;;
67132;SDS011;54052;53.542;49.408;2022-09-09T11:20:47;4.68;;;0.43;;
67132;SDS011;54052;53.542;49.408;2022-09-09T11:23:17;0.32;;;0.13;;
67132;SDS011;54052;53.542;49.408;2022-09-09T11:26:03;0.15;;;0.10;;
67132;SDS011;54052;53.542;49.408;2022-09-09T11:42:06;0.30;;;0.13;;
67132;SDS011;54052;53.542;49.408;2022-09-09T11:44:33;2.45;;;0.40;;
67132;SDS011;54052;53.542;49.408;2022-09-09T11:46:59;5.82;;;1.17;;
67132;SDS011;54052;53.542;49.408;2022-09-09T11:52:10;0.30;;;0.10;;
67132;SDS011;54052;53.542;49.408;2022-09-09T11:54:57;0.80;;;0.20;;
67132;SDS011;54052;53.542;49.408;2022-09-09T11:57:36;0.82;;;0.10;;
67132;SDS011;54052;53.542;49.408;2022-09-09T12:00:03;0.28;;;0.10;;
67132;SDS011;54052;53.542;49.408;2022-09-09T12:02:30;1.70;;;0.20;;
67132;SDS011;54052;53.542;49.408;2022-09-09T12:05:01;5.57;;;0.10;;
67132;SDS011;54052;53.542;49.408;2022-09-09T12:10:38;0.40;;;0.20;;
67132;SDS011;54052;53.542;49.408;2022-09-09T12:13:15;0.65;;;0.30;;
67132;SDS011;54052;53.542;49.408;2022-09-09T12:15:49;0.68;;;0.47;;
67132;SDS011;54052;53.542;49.408;2022-09-09T12:18:39;2.15;;;0.50;;
67132;SDS011;54052;53.542;49.408;2022-09-09T12:21:30;0.50;;;0.30;;
67132;SDS011;54052;53.542;49.408;2022-09-09T12:24:10;1.23;;;0.70;;
67132;SDS011;54052;53.542;49.408;2022-09-09T12:32:24;1.00;;;0.20;;
67132;SDS011;54052;53.542;49.408;2022-09-09T12:34:55;0.32;;;0.10;;
67132;SDS011;54052;53.542;49.408;2022-09-09T12:40:14;0.55;;;0.10;;
67132;SDS011;54052;53.542;49.408;2022-09-09T12:42:46;0.20;;;0.13;;
67132;SDS011;54052;53.542;49.408;2022-09-09T12:45:19;1.83;;;0.25;;
67132;SDS011;54052;53.542;49.408;2022-09-09T12:50:33;0.00;;;0.00;;
67132;SDS011;54052;53.542;49.408;2022-09-09T12:53:24;0.40;;;0.20;;
67132;SDS011;54052;53.542;49.408;2022-09-09T12:55:52;0.50;;;0.20;;
67132;SDS011;54052;53.542;49.408;2022-09-09T12:58:22;0.98;;;0.10;;
67132;SDS011;54052;53.542;49.408;2022-09-09T13:00:52;2.72;;;0.20;;
67132;SDS011;54052;53.542;49.408;2022-09-09T13:03:23;2.00;;;0.28;;
67132;SDS011;54052;53.542;49.408;2022-09-09T13:05:53;1.27;;;0.17;;
67132;SDS011;54052;53.542;49.408;2022-09-09T13:08:25;0.13;;;0.10;;
67132;SDS011;54052;53.542;49.408;2022-09-09T13:10:54;0.68;;;0.10;;
67132;SDS011;54052;53.542;49.408;2022-09-09T13:13:35;1.35;;;0.20;;
67132;SDS011;54052;53.542;49.408;2022-09-09T13:16:20;1.02;;;0.32;;
67132;SDS011;54052;53.542;49.408;2022-09-09T13:19:00;1.05;;;0.43;;
67132;SDS011;54052;53.542;49.408;2022-09-09T13:21:35;2.05;;;0.45;;
67132;SDS011;54052;53.542;49.408;2022-09-09T13:24:07;1.92;;;0.30;;
67132;SDS011;54052;53.542;49.408;2022-09-09T13:26:57;0.05;;;0.00;;
67132;SDS011;54052;53.542;49.408;2022-09-09T13:29:28;0.98;;;0.20;;
67132;SDS011;54052;53.542;49.408;2022-09-09T13:32:05;0.32;;;0.10;;
67132;SDS011;54052;53.542;49.408;2022-09-09T13:34:38;1.10;;;0.30;;
67132;SDS011;54052;53.542;49.408;2022-09-09T13:37:05;3.58;;;0.40;;
67132;SDS011;54052;53.542;49.408;2022-09-09T13:39:39;1.52;;;0.57;;
67132;SDS011;54052;53.542;49.408;2022-09-09T13:42:05;1.00;;;0.50;;
67132;SDS011;54052;53.542;49.408;2022-09-09T13:44:47;0.28;;;0.10;;
67132;SDS011;54052;53.542;49.408;2022-09-09T13:47:20;0.28;;;0.05;;
67132;SDS011;54052;53.542;49.408;2022-09-09T13:52:47;2.55;;;0.38;;
67132;SDS011;54052;53.542;49.408;2022-09-09T13:55:15;1.30;;;0.05;;
67132;SDS011;54052;53.542;49.408;2022-09-09T13:57:50;0.30;;;0.17;;
67132;SDS011;54052;53.542;49.408;2022-09-09T14:00:23;1.65;;;0.10;;
67132;SDS011;54052;53.542;49.408;2022-09-09T14:02:50;0.68;;;0.20;;
67132;SDS011;54052;53.542;49.408;2022-09-09T14:05:17;0.80;;;0.20;;
67132;SDS011;54052;53.542;49.408;2022-09-09T14:07:45;0.13;;;0.10;;
67132;SDS011;54052;53.542;49.408;2022-09-09T14:10:11;3.05;;;0.10;;
67132;SDS011;54052;53.542;49.408;2022-09-09T14:12:37;0.80;;;0.10;;
67132;SDS011;54052;53.542;49.408;2022-09-09T14:15:04;0.35;;;0.20;;
67132;SDS011;54052;53.542;49.408;2022-09-09T14:17:32;3.25;;;0.50;;
67132;SDS011;54052;53.542;49.408;2022-09-09T14:19:58;0.43;;;0.20;;
67132;SDS011;54052;53.542;49.408;2022-09-09T14:22:25;3.85;;;0.17;;
67132;SDS011;54052;53.542;49.408;2022-09-09T14:24:51;1.65;;;0.10;;
67132;SDS011;54052;53.542;49.408;2022-09-09T14:27:17;0.25;;;0.15;;
67132;SDS011;54052;53.542;49.408;2022-09-09T14:29:44;0.38;;;0.20;;
67132;SDS011;54052;53.542;49.408;2022-09-09T14:32:11;1.20;;;0.10;;
67132;SDS011;54052;53.542;49.408;2022-09-09T14:34:37;4.60;;;0.63;;
67132;SDS011;54052;53.542;49.408;2022-09-09T14:37:03;0.63;;;0.30;;
67132;SDS011;54052;53.542;49.408;2022-09-09T14:39:29;0.50;;;0.30;;
67132;SDS011;54052;53.542;49.408;2022-09-09T14:41:56;3.58;;;0.30;;
67132;SDS011;54052;53.542;49.408;2022-09-09T14:44:22;2.42;;;0.20;;
67132;SDS011;54052;53.542;49.408;2022-09-09T14:46:48;0.30;;;0.20;;
67132;SDS011;54052;53.542;49.408;2022-09-09T14:49:17;0.45;;;0.20;;
67132;SDS011;54052;53.542;49.408;2022-09-09T14:51:43;1.45;;;0.22;;
67132;SDS011;54052;53.542;49.408;2022-09-09T14:54:09;0.50;;;0.25;;
67132;SDS011;54052;53.542;49.408;2022-09-09T14:56:36;1.15;;;0.20;;
67132;SDS011;54052;53.542;49.408;2022-09-09T14:59:03;0.80;;;0.35;;
67132;SDS011;54052;53.542;49.408;2022-09-09T15:01:32;1.17;;;0.17;;
67132;SDS011;54052;53.542;49.408;2022-09-09T15:04:00;4.38;;;0.77;;
67132;SDS011;54052;53.542;49.408;2022-09-09T15:06:29;3.08;;;0.50;;
67132;SDS011;54052;53.542;49.408;2022-09-09T15:08:58;2.28;;;0.50;;
67132;SDS011;54052;53.542;49.408;2022-09-09T15:11:26;2.88;;;0.40;;
67132;SDS011;54052;53.542;49.408;2022-09-09T15:13:53;3.03;;;0.22;;
67132;SDS011;54052;53.542;49.408;2022-09-09T15:16:20;2.88;;;0.30;;
67132;SDS011;54052;53.542;49.408;2022-09-09T15:18:51;3.58;;;0.30;;
67132;SDS011;54052;53.542;49.408;2022-09-09T15:21:20;0.63;;;0.22;;
67132;SDS011;54052;53.542;49.408;2022-09-09T15:23:48;0.40;;;0.20;;
67132;SDS011;54052;53.542;49.408;2022-09-09T15:26:14;1.27;;;0.30;;
67132;SDS011;54052;53.542;49.408;2022-09-09T15:28:41;4.13;;;0.47;;
67132;SDS011;54052;53.542;49.408;2022-09-09T15:31:10;2.65;;;0.40;;
67132;SDS011;54052;53.542;49.408;2022-09-09T15:33:39;3.30;;;0.40;;
67132;SDS011;54052;53.542;49.408;2022-09-09T15:36:19;1.40;;;0.52;;
67132;SDS011;54052;53.542;49.408;2022-09-09T15:38:50;3.08;;;0.40;;
67132;SDS011;54052;53.542;49.408;2022-09-09T15:41:17;1.75;;;0.30;;
67132;SDS011;54052;53.542;49.408;2022-09-09T15:43:45;1.65;;;0.20;;
67132;SDS011;54052;53.542;49.408;2022-09-09T15:46:22;0.25;;;0.22;;
67132;SDS011;54052;53.542;49.408;2022-09-09T15:48:51;3.78;;;0.30;;
67132;SDS011;54052;53.542;49.408;2022-09-09T15:51:22;0.73;;;0.32;;
67132;SDS011;54052;53.542;49.408;2022-09-09T15:53:53;0.70;;;0.20;;
67132;SDS011;54052;53.542;49.408;2022-09-09T15:56:21;2.40;;;0.38;;
67132;SDS011;54052;53.542;49.408;2022-09-09T15:58:48;0.40;;;0.20;;
67132;SDS011;54052;53.542;49.408;2022-09-09T16:01:15;3.08;;;0.30;;
67132;SDS011;54052;53.542;49.408;2022-09-09T16:03:42;0.85;;;0.20;;
67132;SDS011;54052;53.542;49.408;2022-09-09T16:06:11;0.75;;;0.28;;
67132;SDS011;54052;53.542;49.408;2022-09-09T16:08:39;0.82;;;0.30;;
67132;SDS011;54052;53.542;49.408;2022-09-09T16:11:08;0.60;;;0.20;;
67132;SDS011;54052;53.542;49.408;2022-09-09T16:13:43;1.85;;;0.28;;
67132;SDS011;54052;53.542;49.408;2022-09-09T16:16:13;1.60;;;0.30;;
67132;SDS011;54052;53.542;49.408;2022-09-09T16:18:42;2.75;;;0.57;;
67132;SDS011;54052;53.542;49.408;2022-09-09T16:21:18;2.53;;;0.68;;
67132;SDS011;54052;53.542;49.408;2022-09-09T16:23:45;3.80;;;0.63;;
67132;SDS011;54052;53.542;49.408;2022-09-09T16:26:13;1.00;;;0.60;;
67132;SDS011;54052;53.542;49.408;2022-09-09T16:28:41;0.77;;;0.47;;
67132;SDS011;54052;53.542;49.408;2022-09-09T16:31:07;2.45;;;0.80;;
67132;SDS011;54052;53.542;49.408;2022-09-09T16:33:36;5.47;;;0.50;;
67132;SDS011;54052;53.542;49.408;2022-09-09T16:36:09;0.63;;;0.30;;
67132;SDS011;54052;53.542;49.408;2022-09-09T16:38:37;2.30;;;0.20;;
67132;SDS011;54052;53.542;49.408;2022-09-09T16:41:05;2.08;;;0.20;;
67132;SDS011;54052;53.542;49.408;2022-09-09T16:43:32;0.30;;;0.10;;
67132;SDS011;54052;53.542;49.408;2022-09-09T16:45:59;0.20;;;0.10;;
67132;SDS011;54052;53.542;49.408;2022-09-09T16:48:34;2.08;;;0.10;;
67132;SDS011;54052;53.542;49.408;2022-09-09T16:51:01;0.75;;;0.10;;
67132;SDS011;54052;53.542;49.408;2022-09-09T16:53:32;2.13;;;0.20;;
67132;SDS011;54052;53.542;49.408;2022-09-09T16:56:09;0.65;;;0.40;;
67132;SDS011;54052;53.542;49.408;2022-09-09T16:58:37;2.15;;;0.50;;
67132;SDS011;54052;53.542;49.408;2022-09-09T17:01:03;1.75;;;0.40;;
67132;SDS011;54052;53.542;49.408;2022-09-09T17:03:30;0.73;;;0.57;;
67132;SDS011;54052;53.542;49.408;2022-09-09T17:05:58;0.40;;;0.20;;
67132;SDS011;54052;53.542;49.408;2022-09-09T17:08:30;0.30;;;0.10;;
67132;SDS011;54052;53.542;49.408;2022-09-09T17:10:56;0.35;;;0.10;;
67132;SDS011;54052;53.542;49.408;2022-09-09T17:13:23;8.65;;;0.20;;
67132;SDS011;54052;53.542;49.408;2022-09-09T17:15:51;0.38;;;0.10;;
67132;SDS011;54052;53.542;49.408;2022-09-09T17:18:17;0.93;;;0.20;;
67132;SDS011;54052;53.542;49.408;2022-09-09T17:20:43;0.65;;;0.13;;
67132;SDS011;54052;53.542;49.408;2022-09-09T17:23:09;0.20;;;0.13;;
67132;SDS011;54052;53.542;49.408;2022-09-09T17:25:37;0.20;;;0.10;;
67132;SDS011;54052;53.542;49.408;2022-09-09T17:28:03;0.43;;;0.10;;